Time;durP1;ratioP1;P1;durP2;ratioP2;P2;SDS_P1;SDS_P2;PMS_P1;PMS_P2;Temp;Humidity;BMP_temperature;BMP_pressure;BME280_temperature;BME280_humidity;BME280_pressure;Samples;Min_cycle;Max_cycle;Signal;HPM_P1;HPM_P2
2022/06/25 00:01:02;;;;;;;1.65;1.40;;;23.70;58.20;;;;;;4886699;29;20088;-79
2022/06/25 00:03:28;;;;;;;1.33;1.10;;;23.60;58.20;;;;;;4917520;29;20028;-79
2022/06/25 00:05:54;;;;;;;2.08;1.60;;;23.60;58.30;;;;;;4917602;29;20462;-79
2022/06/25 00:08:20;;;;;;;1.75;1.50;;;23.60;58.30;;;;;;4902364;29;20540;-80
2022/06/25 00:10:45;;;;;;;1.23;1.10;;;23.60;58.30;;;;;;4886326;29;20055;-79
2022/06/25 00:13:11;;;;;;;1.50;1.40;;;23.50;58.30;;;;;;4901794;29;20040;-79
2022/06/25 00:15:37;;;;;;;1.45;1.35;;;23.50;58.40;;;;;;4870678;29;20048;-79
2022/06/25 00:18:03;;;;;;;1.55;1.30;;;23.50;58.40;;;;;;4886979;29;20036;-78
2022/06/25 00:20:29;;;;;;;1.80;1.35;;;23.50;58.40;;;;;;4870437;29;20370;-80
2022/06/25 00:22:54;;;;;;;1.48;1.38;;;23.50;58.50;;;;;;4870335;29;20047;-78
2022/06/25 00:25:20;;;;;;;1.40;1.30;;;23.40;58.40;;;;;;4886723;29;20028;-80
2022/06/25 00:27:46;;;;;;;1.88;1.52;;;23.40;58.50;;;;;;4870706;29;20477;-79
2022/06/25 00:30:12;;;;;;;1.52;1.40;;;23.30;58.50;;;;;;4901433;29;20115;-78
2022/06/25 00:32:38;;;;;;;1.20;1.10;;;23.30;58.50;;;;;;4901463;29;20052;-78
2022/06/25 00:35:04;;;;;;;1.25;1.15;;;23.30;58.60;;;;;;4885855;29;20036;-78
2022/06/25 00:37:30;;;;;;;1.30;1.20;;;23.30;58.60;;;;;;4917303;29;20469;-79
2022/06/25 00:39:56;;;;;;;1.48;1.38;;;23.30;58.70;;;;;;4886074;29;20068;-79
2022/06/25 00:42:22;;;;;;;1.30;1.20;;;23.30;58.70;;;;;;4917421;29;20040;-78
2022/06/25 00:44:48;;;;;;;1.17;1.05;;;23.20;58.70;;;;;;4870539;29;20040;-79
2022/06/25 00:47:15;;;;;;;1.20;1.10;;;23.20;58.70;;;;;;4901994;29;20040;-78
2022/06/25 00:49:41;;;;;;;1.30;1.20;;;23.10;58.70;;;;;;4901278;29;20043;-78
2022/06/25 00:52:13;;;;;;;1.13;1.08;;;23.10;58.70;;;;;;4870083;29;20496;-79
2022/06/25 00:54:44;;;;;;;2.45;1.40;;;23.10;58.90;;;;;;4916829;29;20092;-78
2022/06/25 00:57:12;;;;;;;1.52;1.10;;;23.10;58.90;;;;;;4885575;29;20043;-79
2022/06/25 00:59:50;;;;;;;1.25;1.15;;;23.10;58.90;;;;;;4901022;29;20028;-80
2022/06/25 01:02:16;;;;;;;1.52;1.20;;;23.10;59.00;;;;;;4901318;29;20036;-78
2022/06/25 01:04:42;;;;;;;1.25;1.15;;;23.00;58.90;;;;;;4901199;29;20425;-79
2022/06/25 01:07:08;;;;;;;1.33;1.17;;;23.00;58.90;;;;;;4918058;29;20187;-79
2022/06/25 01:09:34;;;;;;;1.90;1.42;;;23.00;58.90;;;;;;4901066;29;20045;-78
2022/06/25 01:12:01;;;;;;;1.67;1.30;;;22.90;58.90;;;;;;4916542;29;20092;-79
2022/06/25 01:14:26;;;;;;;1.67;1.25;;;22.90;58.90;;;;;;4900406;29;20039;-79
2022/06/25 01:16:53;;;;;;;1.52;1.27;;;22.90;59.00;;;;;;4916090;29;20051;-78
2022/06/25 01:19:18;;;;;;;1.30;1.20;;;22.90;58.90;;;;;;4900842;29;20036;-79
2022/06/25 01:21:44;;;;;;;1.20;1.10;;;22.90;59.00;;;;;;4900835;29;20028;-78
2022/06/25 01:24:11;;;;;;;1.20;1.10;;;22.90;59.00;;;;;;4885422;29;20464;-78
2022/06/25 01:26:42;;;;;;;1.40;1.10;;;22.80;59.00;;;;;;4885635;29;20127;-78
2022/06/25 01:29:09;;;;;;;1.50;1.40;;;22.80;59.10;;;;;;4916074;29;20032;-78
2022/06/25 01:31:36;;;;;;;1.30;1.20;;;22.80;59.10;;;;;;4884662;29;20430;-79
2022/06/25 01:34:03;;;;;;;1.65;1.10;;;22.80;59.10;;;;;;4900467;29;20028;-78
2022/06/25 01:36:28;;;;;;;1.20;1.10;;;22.70;59.10;;;;;;4916841;29;20450;-79
2022/06/25 01:38:55;;;;;;;1.15;1.05;;;22.70;59.10;;;;;;4884948;29;20366;-78
2022/06/25 01:41:20;;;;;;;1.33;1.13;;;22.70;59.10;;;;;;4885350;29;20060;-79
2022/06/25 01:43:47;;;;;;;1.35;1.02;;;22.70;59.20;;;;;;4899962;29;20036;-79
2022/06/25 01:46:14;;;;;;;1.45;1.13;;;22.60;59.10;;;;;;4915636;29;20051;-79
2022/06/25 01:48:40;;;;;;;1.25;1.15;;;22.60;59.20;;;;;;4884906;29;20491;-79
2022/06/25 01:51:06;;;;;;;1.50;1.20;;;22.60;59.20;;;;;;4884702;29;20079;-78
2022/06/25 01:53:32;;;;;;;1.45;1.33;;;22.60;59.20;;;;;;4869187;29;20040;-78
2022/06/25 01:55:57;;;;;;;1.20;1.10;;;22.60;59.20;;;;;;4869688;29;20032;-78
2022/06/25 01:58:23;;;;;;;1.75;1.25;;;22.60;59.30;;;;;;4900320;29;20559;-79
2022/06/25 02:00:49;;;;;;;1.05;0.98;;;22.50;59.30;;;;;;4900873;29;20131;-78
2022/06/25 02:03:15;;;;;;;1.52;1.02;;;22.50;59.30;;;;;;4885391;29;20059;-78
2022/06/25 02:05:56;;;;;;;1.30;1.20;;;22.50;59.30;;;;;;4899559;29;20039;-79
2022/06/25 02:08:27;;;;;;;1.83;1.45;;;22.50;59.40;;;;;;4917041;29;20032;-77
2022/06/25 02:10:54;;;;;;;1.17;1.08;;;22.50;59.40;;;;;;4899989;29;20039;-79
2022/06/25 02:13:21;;;;;;;3.30;0.90;;;22.40;59.30;;;;;;4884540;29;20088;-78
2022/06/25 02:15:47;;;;;;;1.30;1.20;;;22.40;59.40;;;;;;4916954;29;20036;-78
2022/06/25 02:18:13;;;;;;;1.15;1.05;;;22.40;59.40;;;;;;4884941;29;20039;-78
2022/06/25 02:20:39;;;;;;;1.10;1.00;;;22.40;59.40;;;;;;4899929;29;20032;-80
2022/06/25 02:23:06;;;;;;;1.20;1.10;;;22.40;59.50;;;;;;4900259;29;20036;-78
2022/06/25 02:25:32;;;;;;;1.42;1.10;;;22.40;59.50;;;;;;4900227;29;20108;-79
2022/06/25 02:27:59;;;;;;;1.27;1.10;;;22.30;59.50;;;;;;4915909;29;20469;-78
2022/06/25 02:30:24;;;;;;;1.15;1.08;;;22.30;59.50;;;;;;4884397;29;20032;-78
2022/06/25 02:32:50;;;;;;;1.58;1.40;;;22.30;59.50;;;;;;4915784;29;20476;-77
2022/06/25 02:35:16;;;;;;;1.30;1.10;;;22.30;59.50;;;;;;4900133;29;20032;-78
2022/06/25 02:37:43;;;;;;;1.60;1.40;;;22.30;59.50;;;;;;4884548;29;20036;-80
2022/06/25 02:40:12;;;;;;;1.35;1.20;;;22.20;59.50;;;;;;4915799;29;20557;-78
2022/06/25 02:42:40;;;;;;;1.23;1.13;;;22.20;59.60;;;;;;4916393;29;20042;-79
2022/06/25 02:45:08;;;;;;;1.23;1.10;;;22.20;59.70;;;;;;4902292;29;20028;-78
2022/06/25 02:47:36;;;;;;;3.55;1.17;;;22.20;59.70;;;;;;4888649;29;20024;-79
2022/06/25 02:50:08;;;;;;;1.88;1.20;;;22.10;59.60;;;;;;4920145;29;20036;-78
2022/06/25 02:52:35;;;;;;;1.40;1.30;;;22.10;59.60;;;;;;4888165;29;20084;-78
2022/06/25 02:55:01;;;;;;;1.30;1.20;;;22.10;59.70;;;;;;4872355;29;20043;-78
2022/06/25 03:00:25;;;;;;;0.90;0.90;;;22.10;59.70;;;;;;4877305;29;20043;-78
2022/06/25 03:02:51;;;;;;;1.25;1.15;;;22.10;59.60;;;;;;4872516;29;20039;-78
2022/06/25 03:05:17;;;;;;;1.67;1.40;;;22.10;60.30;;;;;;4903192;29;20092;-78
2022/06/25 03:07:43;;;;;;;1.52;1.20;;;22.00;59.70;;;;;;4903269;29;20032;-78
2022/06/25 03:10:09;;;;;;;1.42;1.20;;;22.00;59.70;;;;;;4871980;29;20043;-78
2022/06/25 03:12:35;;;;;;;1.25;1.10;;;21.90;59.70;;;;;;4918817;29;20028;-78
2022/06/25 03:15:21;;;;;;;1.35;1.25;;;21.90;59.70;;;;;;4918227;29;20132;-78
2022/06/25 03:17:48;;;;;;;2.17;1.60;;;21.90;59.60;;;;;;4868364;29;20478;-78
2022/06/25 03:20:32;;;;;;;1.23;1.13;;;21.90;59.70;;;;;;4886640;29;20219;-79
2022/06/25 03:23:01;;;;;;;1.95;1.30;;;21.90;59.60;;;;;;4868909;29;20185;-78
2022/06/25 03:25:28;;;;;;;1.55;1.30;;;21.90;59.70;;;;;;4884242;29;20035;-78
2022/06/25 03:27:54;;;;;;;1.75;1.40;;;21.80;59.70;;;;;;4884007;29;20037;-79
2022/06/25 03:30:19;;;;;;;1.50;1.10;;;21.80;59.70;;;;;;4899524;29;20033;-78
2022/06/25 03:32:48;;;;;;;1.05;0.98;;;21.80;59.80;;;;;;4883793;29;20135;-79
2022/06/25 03:35:40;;;;;;;1.23;1.13;;;21.80;59.80;;;;;;4897582;29;20040;-78
2022/06/25 03:38:17;;;;;;;1.17;1.05;;;21.70;59.70;;;;;;4883893;29;20032;-78
2022/06/25 03:40:44;;;;;;;1.20;1.00;;;21.70;59.70;;;;;;4883839;29;20450;-78
2022/06/25 03:43:13;;;;;;;1.48;1.17;;;21.70;59.80;;;;;;4883621;29;20024;-78
2022/06/25 03:45:41;;;;;;;1.20;1.10;;;21.70;59.80;;;;;;4899358;29;20521;-78
2022/06/25 03:48:07;;;;;;;3.00;1.17;;;21.70;59.80;;;;;;4883399;29;20133;-78
2022/06/25 03:50:56;;;;;;;1.40;1.30;;;21.60;59.80;;;;;;4881494;29;20061;-79
2022/06/25 03:53:22;;;;;;;1.20;1.10;;;21.60;59.80;;;;;;4852673;29;20043;-78
2022/06/25 03:55:48;;;;;;;0.90;0.90;;;21.60;59.90;;;;;;4882676;29;20036;-77
2022/06/25 03:58:14;;;;;;;1.55;1.20;;;21.60;59.90;;;;;;4883631;29;20060;-79
2022/06/25 04:00:39;;;;;;;1.35;1.25;;;21.50;59.80;;;;;;4867963;29;20407;-79
2022/06/25 04:03:05;;;;;;;1.27;1.17;;;21.60;60.00;;;;;;4883343;29;20041;-78
2022/06/25 04:05:51;;;;;;;2.22;1.30;;;21.50;59.90;;;;;;4882643;29;20467;-79
2022/06/25 04:08:49;;;;;;;1.42;1.33;;;21.50;59.90;;;;;;4883917;29;20362;-79
2022/06/25 04:11:16;;;;;;;1.60;1.27;;;21.50;60.00;;;;;;4867933;29;20158;-79
2022/06/25 04:13:47;;;;;;;1.20;1.10;;;21.50;60.00;;;;;;4883365;29;20075;-78
2022/06/25 04:16:13;;;;;;;1.73;1.23;;;21.50;60.10;;;;;;4885560;29;20061;-78
2022/06/25 04:18:39;;;;;;;1.45;1.30;;;21.40;60.10;;;;;;4915019;29;20036;-78
2022/06/25 04:21:06;;;;;;;1.35;1.25;;;21.40;60.20;;;;;;4883211;29;20041;-78
2022/06/25 04:23:32;;;;;;;1.38;1.25;;;21.40;60.80;;;;;;4883008;29;20033;-78
2022/06/25 04:26:00;;;;;;;1.25;1.10;;;21.40;60.20;;;;;;4899113;29;20041;-79
2022/06/25 04:31:36;;;;;;;2.65;1.23;;;21.40;60.30;;;;;;4893640;29;20053;-79
2022/06/25 04:34:05;;;;;;;1.30;1.20;;;21.40;60.30;;;;;;4883448;29;20120;-78
2022/06/25 04:36:31;;;;;;;1.20;1.10;;;21.40;60.40;;;;;;4882857;29;20453;-78
2022/06/25 04:39:05;;;;;;;;;;;21.40;60.40;;;;;;4884590;29;20036;-78
2022/06/25 04:41:32;;;;;;;1.55;1.10;;;21.40;60.20;;;;;;4898186;29;20030;-78
2022/06/25 04:44:01;;;;;;;1.30;1.20;;;21.30;60.10;;;;;;4882291;29;20115;-78
2022/06/25 04:46:31;;;;;;;2.15;1.30;;;21.30;60.30;;;;;;4882843;29;20177;-78
2022/06/25 04:48:58;;;;;;;1.30;1.20;;;21.30;60.40;;;;;;4882638;29;20107;-78
2022/06/25 04:51:31;;;;;;;1.85;1.40;;;21.30;60.40;;;;;;4914587;29;20522;-78
2022/06/25 04:53:57;;;;;;;1.30;1.20;;;21.30;60.40;;;;;;4882694;29;20197;-78
2022/06/25 04:56:43;;;;;;;1.38;1.27;;;21.30;60.50;;;;;;4897755;29;20123;-78
2022/06/25 04:59:11;;;;;;;1.30;1.20;;;21.20;60.40;;;;;;4882681;29;20393;-78
2022/06/25 05:01:54;;;;;;;1.20;1.13;;;21.30;60.50;;;;;;4899063;29;20043;-78
2022/06/25 05:04:40;;;;;;;1.40;1.30;;;21.30;60.50;;;;;;4897803;29;20063;-79
2022/06/25 05:07:06;;;;;;;1.90;1.30;;;21.30;60.50;;;;;;4912794;29;20032;-79
2022/06/25 05:09:32;;;;;;;1.73;1.33;;;21.30;60.50;;;;;;4882576;29;20450;-78
2022/06/25 05:11:58;;;;;;;1.33;1.23;;;21.30;60.60;;;;;;4881856;29;20036;-79
2022/06/25 05:14:24;;;;;;;1.40;1.30;;;21.20;60.50;;;;;;4913422;29;20036;-78
2022/06/25 05:16:50;;;;;;;1.42;1.33;;;21.20;60.50;;;;;;4908038;29;20052;-78
2022/06/25 05:19:16;;;;;;;1.55;1.27;;;21.30;60.60;;;;;;4900816;29;20023;-79
2022/06/25 05:21:43;;;;;;;1.30;1.20;;;21.30;60.60;;;;;;4916882;29;20036;-78
2022/06/25 05:24:09;;;;;;;1.35;1.08;;;21.30;60.60;;;;;;4916684;29;20116;-78
2022/06/25 05:26:35;;;;;;;1.50;1.40;;;21.30;60.60;;;;;;4900906;29;20063;-79
2022/06/25 05:29:01;;;;;;;1.20;1.13;;;21.30;60.60;;;;;;4869357;29;20031;-79
2022/06/25 05:31:27;;;;;;;1.60;1.50;;;21.30;60.60;;;;;;4885075;29;20040;-79
2022/06/25 05:33:53;;;;;;;1.35;1.17;;;21.30;60.60;;;;;;4869700;29;20155;-78
2022/06/25 05:36:19;;;;;;;1.23;1.13;;;21.30;60.60;;;;;;4869453;29;20461;-78
2022/06/25 05:38:45;;;;;;;1.33;1.20;;;21.30;60.60;;;;;;4885766;29;20112;-86
2022/06/25 05:41:10;;;;;;;1.45;1.27;;;21.30;60.60;;;;;;4871136;29;20044;-84
2022/06/25 05:43:40;;;;;;;1.33;1.23;;;21.30;60.60;;;;;;4885017;29;20389;-84
2022/06/25 05:46:06;;;;;;;1.17;1.10;;;21.30;60.60;;;;;;4918442;29;20028;-81
2022/06/25 05:48:33;;;;;;;1.30;1.20;;;21.40;60.60;;;;;;4885965;29;20047;-84
2022/06/25 05:50:59;;;;;;;1.10;1.10;;;21.40;61.30;;;;;;4901088;29;20070;-82
2022/06/25 05:53:26;;;;;;;1.13;1.00;;;21.30;60.50;;;;;;4916932;29;20042;-81
2022/06/25 05:55:52;;;;;;;1.13;1.02;;;21.40;60.60;;;;;;4885244;29;20071;-83
2022/06/25 05:58:19;;;;;;;1.48;1.30;;;21.40;60.60;;;;;;4901299;29;20119;-83
2022/06/25 06:00:46;;;;;;;1.40;1.20;;;21.40;60.60;;;;;;4918133;29;20027;-83
2022/06/25 06:03:11;;;;;;;1.20;1.10;;;21.40;60.60;;;;;;4885756;29;20052;-82
2022/06/25 06:05:38;;;;;;;2.17;1.23;;;21.50;60.60;;;;;;4917755;29;20032;-82
2022/06/25 06:08:05;;;;;;;2.55;1.25;;;21.50;60.60;;;;;;4916772;29;20461;-84
2022/06/25 06:10:32;;;;;;;1.77;1.40;;;21.50;60.60;;;;;;4917665;29;20031;-84
2022/06/25 06:12:57;;;;;;;1.30;1.20;;;21.50;60.60;;;;;;4901058;29;20168;-83
2022/06/25 06:15:23;;;;;;;1.10;1.02;;;21.50;60.50;;;;;;4885599;29;20043;-84
2022/06/25 06:17:49;;;;;;;1.10;1.05;;;21.50;60.50;;;;;;4913240;29;20056;-83
2022/06/25 06:20:15;;;;;;;1.40;1.30;;;21.50;60.50;;;;;;4913597;29;20107;-84
2022/06/25 06:22:40;;;;;;;1.20;1.10;;;21.60;60.50;;;;;;4898051;29;20400;-82
2022/06/25 06:25:07;;;;;;;1.17;1.08;;;21.50;60.40;;;;;;4881994;29;20035;-81
2022/06/25 06:27:33;;;;;;;1.30;1.08;;;21.60;60.50;;;;;;4882145;29;20032;-83
2022/06/25 06:29:58;;;;;;;1.10;1.00;;;21.60;60.40;;;;;;4913647;29;20033;-82
2022/06/25 06:32:24;;;;;;;1.20;1.10;;;21.60;60.40;;;;;;4913574;29;20052;-82
2022/06/25 06:34:50;;;;;;;1.10;1.00;;;21.60;60.40;;;;;;4898412;29;20064;-83
2022/06/25 06:37:16;;;;;;;1.92;1.13;;;21.60;60.40;;;;;;4913244;29;20048;-82
2022/06/25 06:39:41;;;;;;;1.88;1.27;;;21.70;60.40;;;;;;4913359;29;20549;-83
2022/06/25 06:42:08;;;;;;;1.25;1.15;;;21.70;60.40;;;;;;4882506;29;20045;-83
2022/06/25 06:44:38;;;;;;;1.38;1.05;;;21.70;60.40;;;;;;4883048;29;20429;-83
2022/06/25 06:47:04;;;;;;;1.25;1.15;;;21.70;60.40;;;;;;4881909;29;20039;-83
2022/06/25 06:49:29;;;;;;;1.20;1.05;;;21.70;60.40;;;;;;4897383;29;20032;-81
2022/06/25 06:51:55;;;;;;;1.98;1.30;;;21.70;60.40;;;;;;4897204;29;20111;-81
2022/06/25 06:54:21;;;;;;;1.38;1.17;;;21.70;60.30;;;;;;4913188;29;20060;-82
2022/06/25 06:56:46;;;;;;;1.10;1.00;;;21.70;60.30;;;;;;4912895;29;20089;-80
2022/06/25 06:59:12;;;;;;;1.48;1.20;;;21.70;60.30;;;;;;4898375;29;20124;-82
2022/06/25 07:01:38;;;;;;;1.27;1.20;;;21.80;60.30;;;;;;4881783;29;20048;-82
2022/06/25 07:04:04;;;;;;;1.25;1.10;;;21.80;60.20;;;;;;4897997;29;20044;-82
2022/06/25 07:06:29;;;;;;;1.40;1.30;;;21.80;60.30;;;;;;4898047;29;20032;-83
2022/06/25 07:08:55;;;;;;;1.20;1.10;;;21.80;60.30;;;;;;4896621;29;20491;-88
2022/06/25 07:11:30;;;;;;;1.15;1.08;;;21.90;60.30;;;;;;4896383;29;20041;-80
2022/06/25 07:13:56;;;;;;;;;;;21.90;60.30;;;;;;4896382;29;20474;-81
2022/06/25 07:16:22;;;;;;;1.35;1.05;;;21.90;60.10;;;;;;4885942;29;19926;-81
2022/06/25 07:18:50;;;;;;;1.27;1.17;;;21.90;60.00;;;;;;4899839;29;20064;-83
2022/06/25 07:21:16;;;;;;;1.20;1.10;;;21.90;60.20;;;;;;4900109;29;20099;-80
2022/06/25 07:23:42;;;;;;;1.08;1.08;;;21.90;60.20;;;;;;4899431;29;20482;-80
2022/06/25 07:26:08;;;;;;;1.15;1.02;;;22.00;60.20;;;;;;4914859;29;20024;-80
2022/06/25 07:28:33;;;;;;;2.45;1.30;;;22.00;60.20;;;;;;4899719;29;20033;-80
2022/06/25 07:30:59;;;;;;;1.13;0.95;;;22.00;60.10;;;;;;4901361;29;20040;-82
2022/06/25 07:33:25;;;;;;;1.27;1.17;;;22.10;60.20;;;;;;4887129;29;20430;-81
2022/06/25 07:35:50;;;;;;;1.20;1.10;;;22.10;60.00;;;;;;4871532;29;20072;-81
2022/06/25 07:38:16;;;;;;;1.50;1.20;;;22.20;60.00;;;;;;4919579;29;20031;-81
2022/06/25 07:40:42;;;;;;;2.50;1.60;;;22.20;60.00;;;;;;4919946;29;20044;-81
2022/06/25 07:43:08;;;;;;;1.23;1.13;;;22.30;60.00;;;;;;4902418;29;20496;-81
2022/06/25 07:45:33;;;;;;;1.20;1.10;;;22.30;59.90;;;;;;4902703;29;20032;-80
2022/06/25 07:47:59;;;;;;;1.20;1.10;;;22.40;59.80;;;;;;4919401;29;20130;-80
2022/06/25 07:53:09;;;;;;;1.33;1.17;;;22.50;59.80;;;;;;4889582;29;20369;-81
2022/06/25 07:55:35;;;;;;;0.88;0.88;;;22.50;60.20;;;;;;4871651;29;20032;-81
2022/06/25 07:58:01;;;;;;;1.10;1.00;;;22.60;59.60;;;;;;4918294;29;20131;-80
2022/06/25 08:00:27;;;;;;;0.90;0.90;;;22.60;59.60;;;;;;4887454;29;20036;-79
2022/06/25 08:02:52;;;;;;;2.08;1.30;;;22.70;59.50;;;;;;4917930;29;20039;-80
2022/06/25 08:05:19;;;;;;;1.58;1.20;;;22.70;59.50;;;;;;4919724;29;20055;-81
2022/06/25 08:07:46;;;;;;;1.08;0.95;;;22.80;59.40;;;;;;4919036;29;20028;-81
2022/06/25 08:10:11;;;;;;;1.08;1.00;;;22.90;59.40;;;;;;4886655;29;20055;-80
2022/06/25 08:12:37;;;;;;;2.50;1.23;;;22.90;59.30;;;;;;4919142;29;20037;-80
2022/06/25 08:15:04;;;;;;;1.05;1.00;;;23.00;59.30;;;;;;4886374;29;20091;-80
2022/06/25 08:17:30;;;;;;;0.95;0.93;;;23.00;59.50;;;;;;4886336;29;20079;-80
2022/06/25 08:19:56;;;;;;;1.27;1.17;;;23.10;59.20;;;;;;4917613;29;20075;-80
2022/06/25 08:22:23;;;;;;;1.10;1.00;;;23.10;59.10;;;;;;4917670;29;20080;-80
2022/06/25 08:24:48;;;;;;;1.25;1.00;;;23.20;59.10;;;;;;4901940;29;20055;-80
2022/06/25 08:27:14;;;;;;;1.10;1.00;;;23.20;59.00;;;;;;4902071;29;20055;-80
2022/06/25 08:29:40;;;;;;;1.17;1.10;;;23.30;59.00;;;;;;4902335;29;20055;-80
2022/06/25 08:32:06;;;;;;;1.60;1.08;;;23.30;58.90;;;;;;4901372;29;20523;-80
2022/06/25 08:34:31;;;;;;;1.48;1.02;;;23.40;58.80;;;;;;4917660;29;20034;-80
2022/06/25 08:36:57;;;;;;;1.20;1.10;;;23.50;58.80;;;;;;4918249;29;20036;-80
2022/06/25 08:39:23;;;;;;;1.20;1.10;;;23.60;58.80;;;;;;4902235;29;20028;-81
2022/06/25 08:41:48;;;;;;;0.82;0.82;;;23.60;58.70;;;;;;4901735;29;20075;-81
2022/06/25 08:44:14;;;;;;;1.20;0.85;;;23.60;58.60;;;;;;4901755;29;20032;-80
2022/06/25 08:46:40;;;;;;;1.63;1.08;;;23.70;58.50;;;;;;4901494;29;20067;-79
2022/06/25 08:49:09;;;;;;;1.60;0.90;;;23.80;58.50;;;;;;4901723;29;20029;-79
2022/06/25 08:51:38;;;;;;;1.20;1.00;;;23.90;58.50;;;;;;4901799;29;20075;-80
2022/06/25 08:54:07;;;;;;;0.90;0.90;;;23.90;58.40;;;;;;4901488;29;20035;-79
2022/06/25 08:56:35;;;;;;;0.95;0.90;;;24.00;58.30;;;;;;4918767;29;20059;-79
2022/06/25 08:59:00;;;;;;;0.95;0.88;;;24.10;58.30;;;;;;4901599;29;20028;-79
2022/06/25 09:01:26;;;;;;;1.13;1.02;;;24.10;58.20;;;;;;4917251;29;20044;-80
2022/06/25 09:03:52;;;;;;;2.47;1.00;;;24.20;58.10;;;;;;4918098;29;20056;-80
2022/06/25 09:06:21;;;;;;;0.80;0.80;;;24.30;58.10;;;;;;4901381;29;20024;-79
2022/06/25 09:09:09;;;;;;;0.80;0.80;;;24.40;58.00;;;;;;4917378;29;20037;-80
2022/06/25 09:11:53;;;;;;;1.38;0.80;;;24.40;58.00;;;;;;4918739;29;20060;-81
2022/06/25 09:14:28;;;;;;;0.85;0.80;;;24.50;57.90;;;;;;4901266;29;20032;-81
2022/06/25 09:16:59;;;;;;;1.50;0.90;;;24.60;57.80;;;;;;4900869;29;20052;-80
2022/06/25 09:19:32;;;;;;;1.83;0.80;;;24.60;57.70;;;;;;4917772;29;20040;-81
2022/06/25 09:21:58;;;;;;;0.90;0.90;;;24.70;57.80;;;;;;4917855;29;20036;-81
2022/06/25 09:24:39;;;;;;;1.05;0.90;;;24.80;57.70;;;;;;4885382;29;20024;-79
2022/06/25 09:27:05;;;;;;;1.02;0.95;;;24.80;57.80;;;;;;4901354;29;20036;-81
2022/06/25 09:29:45;;;;;;;0.88;0.75;;;24.90;57.60;;;;;;4916333;29;20032;-80
2022/06/25 09:32:13;;;;;;;0.70;0.70;;;24.90;57.70;;;;;;4897523;29;20052;-81
2022/06/25 09:34:39;;;;;;;1.40;0.95;;;24.90;57.50;;;;;;4916135;29;20034;-80
2022/06/25 09:37:21;;;;;;;1.02;0.93;;;25.00;57.50;;;;;;4917798;29;20052;-81
2022/06/25 09:39:49;;;;;;;0.63;0.63;;;25.00;57.70;;;;;;4917749;29;20040;-80
2022/06/25 09:42:34;;;;;;;0.80;0.80;;;25.00;57.40;;;;;;4900941;29;20031;-81
2022/06/25 09:45:06;;;;;;;0.85;0.77;;;25.10;57.60;;;;;;4916632;29;20044;-80
2022/06/25 09:47:39;;;;;;;1.83;0.90;;;25.10;57.50;;;;;;4917878;29;20079;-81
2022/06/25 09:50:15;;;;;;;0.95;0.70;;;25.10;58.10;;;;;;4900361;29;20036;-80
2022/06/25 09:52:56;;;;;;;0.80;0.80;;;25.10;57.50;;;;;;4916886;29;20080;-80
2022/06/25 09:55:25;;;;;;;0.75;0.75;;;25.10;57.50;;;;;;4916748;29;20028;-80
2022/06/25 09:57:52;;;;;;;1.08;0.90;;;25.10;57.50;;;;;;4915786;29;20113;-81
2022/06/25 10:00:19;;;;;;;1.08;0.80;;;25.10;57.50;;;;;;4916998;29;20032;-79
2022/06/25 10:02:47;;;;;;;0.75;0.75;;;25.10;57.50;;;;;;4900363;29;20500;-81
2022/06/25 10:05:15;;;;;;;1.15;0.80;;;25.20;57.50;;;;;;4916521;29;20429;-80
2022/06/25 10:08:01;;;;;;;0.65;0.65;;;25.20;57.50;;;;;;4900243;29;20028;-80
2022/06/25 10:10:38;;;;;;;0.82;0.82;;;25.20;57.60;;;;;;4917343;29;20493;-80
2022/06/25 10:13:05;;;;;;;0.90;0.90;;;25.20;57.50;;;;;;4916967;29;20040;-80
2022/06/25 10:15:31;;;;;;;1.65;0.90;;;25.20;57.50;;;;;;4884954;29;20111;-81
2022/06/25 10:18:01;;;;;;;0.88;0.82;;;25.20;57.50;;;;;;4899947;29;20131;-81
2022/06/25 10:20:28;;;;;;;0.95;0.95;;;25.20;57.60;;;;;;4885310;29;20024;-82
2022/06/25 10:22:55;;;;;;;0.70;0.70;;;25.20;57.50;;;;;;4916970;29;20040;-80
2022/06/25 10:25:23;;;;;;;1.50;0.88;;;25.20;57.50;;;;;;4917303;29;20021;-82
2022/06/25 10:27:50;;;;;;;1.02;0.85;;;25.30;57.60;;;;;;4917050;29;20024;-84
2022/06/25 10:30:43;;;;;;;0.70;0.70;;;25.30;57.50;;;;;;4870025;29;20493;-82
2022/06/25 10:33:08;;;;;;;0.93;0.80;;;25.30;57.60;;;;;;4916529;29;20040;-80
2022/06/25 10:35:36;;;;;;;0.70;0.70;;;25.40;57.60;;;;;;4900478;29;20117;-82
2022/06/25 10:38:05;;;;;;;0.80;0.80;;;25.30;57.50;;;;;;4916572;29;20031;-80
2022/06/25 10:40:33;;;;;;;0.60;0.60;;;25.40;57.50;;;;;;4915540;29;20084;-80
2022/06/25 10:43:04;;;;;;;0.60;0.60;;;25.40;57.50;;;;;;4915925;29;20058;-79
2022/06/25 10:45:44;;;;;;;0.80;0.80;;;25.40;57.50;;;;;;4900010;29;20056;-81
2022/06/25 10:48:10;;;;;;;1.13;1.00;;;25.40;57.50;;;;;;4915732;29;20377;-80
2022/06/25 10:50:36;;;;;;;1.17;0.90;;;25.40;57.40;;;;;;4899556;29;20032;-80
2022/06/25 10:53:02;;;;;;;0.68;0.68;;;25.50;57.40;;;;;;4900309;29;20036;-79
2022/06/25 10:55:46;;;;;;;0.73;0.73;;;25.50;57.40;;;;;;4917209;29;20047;-78
2022/06/25 10:58:26;;;;;;;1.15;1.05;;;25.50;57.30;;;;;;4916732;29;20039;-79
2022/06/25 11:00:57;;;;;;;0.80;0.80;;;25.60;57.40;;;;;;4900047;29;20044;-80
2022/06/25 11:03:29;;;;;;;0.82;0.82;;;25.60;57.40;;;;;;4916786;29;20028;-78
2022/06/25 11:06:15;;;;;;;0.90;0.90;;;25.60;57.40;;;;;;4917698;29;20036;-78
2022/06/25 11:08:41;;;;;;;0.68;0.68;;;25.60;57.40;;;;;;4890608;29;20048;-84
2022/06/25 11:11:07;;;;;;;1.40;1.00;;;25.60;57.30;;;;;;4887850;29;20066;-78
2022/06/25 11:13:33;;;;;;;0.90;0.90;;;25.60;58.00;;;;;;4903564;29;20087;-79
2022/06/25 11:15:59;;;;;;;1.10;1.00;;;25.60;57.40;;;;;;4919346;29;20024;-80
2022/06/25 11:18:25;;;;;;;1.20;1.10;;;25.60;57.50;;;;;;4920285;29;20545;-80
2022/06/25 11:20:51;;;;;;;1.27;1.17;;;25.60;57.60;;;;;;4903472;29;20040;-83
2022/06/25 11:23:17;;;;;;;1.38;1.20;;;25.60;57.70;;;;;;4887872;29;20052;-83
2022/06/25 11:28:49;;;;;;;1.30;1.10;;;25.60;57.90;;;;;;4920581;29;20402;-86
2022/06/25 11:31:22;;;;;;;1.92;1.05;;;25.60;57.90;;;;;;4903232;29;20041;-83
2022/06/25 11:33:51;;;;;;;1.48;1.15;;;25.60;58.00;;;;;;4919136;29;20088;-83
2022/06/25 11:36:18;;;;;;;1.20;1.10;;;25.60;58.10;;;;;;4903528;29;20024;-85
2022/06/25 11:38:51;;;;;;;1.27;1.10;;;25.60;58.30;;;;;;4918801;29;20079;-79
2022/06/25 11:41:29;;;;;;;2.10;1.25;;;25.60;58.30;;;;;;4920034;29;20029;-79
2022/06/25 11:44:03;;;;;;;3.72;1.15;;;25.60;58.20;;;;;;4887221;29;20032;-80
2022/06/25 11:46:29;;;;;;;1.58;1.20;;;25.70;58.30;;;;;;4918808;29;20024;-83
2022/06/25 11:48:57;;;;;;;1.33;1.23;;;25.70;58.30;;;;;;4919975;29;20513;-81
2022/06/25 11:51:24;;;;;;;1.20;1.10;;;25.70;58.30;;;;;;4918366;29;20116;-80
2022/06/25 11:53:53;;;;;;;1.27;1.00;;;25.70;58.40;;;;;;4918220;29;20056;-81
2022/06/25 11:56:19;;;;;;;1.52;1.05;;;25.80;58.50;;;;;;4902892;29;20040;-81
2022/06/25 11:58:45;;;;;;;2.33;1.35;;;25.80;58.40;;;;;;4902668;29;20480;-82
2022/06/25 12:01:11;;;;;;;1.63;1.17;;;25.80;58.50;;;;;;4918045;29;20111;-81
2022/06/25 12:03:37;;;;;;;2.35;1.10;;;25.90;58.50;;;;;;4918303;29;20020;-80
2022/06/25 12:06:04;;;;;;;2.00;1.42;;;25.90;58.40;;;;;;4871102;29;20088;-79
2022/06/25 12:08:31;;;;;;;1.42;1.20;;;25.90;58.20;;;;;;4902455;29;20036;-81
2022/06/25 12:10:59;;;;;;;1.58;1.10;;;26.00;58.90;;;;;;4902030;29;20044;-81
2022/06/25 12:13:33;;;;;;;2.00;1.30;;;26.00;58.30;;;;;;4919032;29;20024;-82
2022/06/25 12:16:04;;;;;;;2.08;1.05;;;26.00;58.20;;;;;;4917562;29;20028;-80
2022/06/25 12:18:37;;;;;;;1.83;1.08;;;26.10;58.30;;;;;;4918511;29;20032;-82
2022/06/25 12:21:04;;;;;;;8.30;2.25;;;26.10;58.20;;;;;;4901996;29;20043;-83
2022/06/25 12:23:58;;;;;;;4.82;2.00;;;26.10;58.10;;;;;;4919255;29;20036;-82
2022/06/25 12:26:30;;;;;;;4.57;1.50;;;26.20;58.40;;;;;;4918448;29;20088;-80
2022/06/25 12:29:13;;;;;;;2.60;1.25;;;26.20;58.20;;;;;;4919240;29;20024;-82
2022/06/25 12:31:41;;;;;;;2.47;1.45;;;26.30;58.30;;;;;;4902676;29;20071;-80
2022/06/25 12:34:08;;;;;;;1.92;1.10;;;26.30;58.20;;;;;;4918842;29;20106;-81
2022/06/25 12:36:36;;;;;;;2.28;1.30;;;26.30;58.10;;;;;;4919174;29;20035;-81
2022/06/25 12:39:23;;;;;;;2.15;1.20;;;26.30;58.20;;;;;;4886555;29;20031;-80
2022/06/25 12:41:49;;;;;;;2.15;1.30;;;26.30;58.30;;;;;;4901546;29;20047;-81
2022/06/25 12:44:15;;;;;;;1.50;1.10;;;26.40;58.30;;;;;;4901159;29;20453;-80
2022/06/25 12:46:41;;;;;;;1.60;1.13;;;26.40;58.30;;;;;;4885677;29;20172;-80
2022/06/25 12:49:10;;;;;;;1.33;1.15;;;26.40;58.30;;;;;;4901545;29;20111;-82
2022/06/25 12:51:36;;;;;;;2.60;1.15;;;26.50;58.40;;;;;;4917571;29;20473;-80
2022/06/25 12:54:02;;;;;;;2.17;1.40;;;26.50;58.50;;;;;;4870597;29;20168;-80
2022/06/25 12:56:28;;;;;;;1.52;1.20;;;26.50;58.50;;;;;;4870497;29;20060;-81
2022/06/25 12:58:56;;;;;;;1.55;1.25;;;26.50;58.50;;;;;;4885269;29;20111;-80
2022/06/25 13:01:24;;;;;;;1.67;1.10;;;26.60;58.50;;;;;;4900984;29;20036;-80
2022/06/25 13:03:50;;;;;;;0.95;0.95;;;26.60;58.30;;;;;;4901388;29;20036;-80
2022/06/25 13:06:16;;;;;;;1.55;1.20;;;26.70;58.30;;;;;;4901335;29;20059;-81